sensor_id;sensor_type;location;lat;lon;timestamp;pressure;altitude;pressure_sealevel;temperature;humidity
72370;BME280;60343;-32.030;115.880;2022-09-09T00:00:14;101947.66;;;17.83;62.64
72370;BME280;60343;-32.030;115.880;2022-09-09T00:02:52;101951.41;;;18.04;62.23
72370;BME280;60343;-32.030;115.880;2022-09-09T00:05:27;101948.03;;;18.23;61.19
72370;BME280;60343;-32.030;115.880;2022-09-09T00:08:00;101953.00;;;18.40;60.04
72370;BME280;60343;-32.030;115.880;2022-09-09T00:10:31;101957.38;;;18.63;59.18
72370;BME280;60343;-32.030;115.880;2022-09-09T00:13:05;101957.38;;;18.91;59.06
72370;BME280;60343;-32.030;115.880;2022-09-09T00:15:40;101960.72;;;18.93;57.78
72370;BME280;60343;-32.030;115.880;2022-09-09T00:18:22;101959.75;;;19.07;58.54
72370;BME280;60343;-32.030;115.880;2022-09-09T00:20:56;101962.56;;;19.20;58.18
72370;BME280;60343;-32.030;115.880;2022-09-09T00:23:27;101968.09;;;19.40;56.87
72370;BME280;60343;-32.030;115.880;2022-09-09T00:26:04;101968.38;;;19.58;55.91
72370;BME280;60343;-32.030;115.880;2022-09-09T00:28:38;101970.94;;;19.73;55.73
72370;BME280;60343;-32.030;115.880;2022-09-09T00:31:13;101965.38;;;19.94;55.87
72370;BME280;60343;-32.030;115.880;2022-09-09T00:33:47;101967.50;;;20.11;55.34
72370;BME280;60343;-32.030;115.880;2022-09-09T00:36:22;101972.72;;;20.13;54.94
72370;BME280;60343;-32.030;115.880;2022-09-09T00:38:55;101970.22;;;20.18;55.23
72370;BME280;60343;-32.030;115.880;2022-09-09T00:41:33;101965.69;;;20.45;53.68
72370;BME280;60343;-32.030;115.880;2022-09-09T00:44:10;101959.38;;;20.71;53.57
72370;BME280;60343;-32.030;115.880;2022-09-09T00:46:54;101960.44;;;20.70;53.24
72370;BME280;60343;-32.030;115.880;2022-09-09T00:49:37;101953.91;;;20.97;50.97
72370;BME280;60343;-32.030;115.880;2022-09-09T00:52:20;101956.00;;;20.95;52.42
72370;BME280;60343;-32.030;115.880;2022-09-09T00:54:55;101958.50;;;20.90;50.31
72370;BME280;60343;-32.030;115.880;2022-09-09T00:57:28;101963.09;;;21.16;49.94
72370;BME280;60343;-32.030;115.880;2022-09-09T01:00:15;101958.88;;;21.13;49.24
72370;BME280;60343;-32.030;115.880;2022-09-09T01:02:50;101956.59;;;21.04;49.65
72370;BME280;60343;-32.030;115.880;2022-09-09T01:05:38;101956.16;;;21.13;50.09
72370;BME280;60343;-32.030;115.880;2022-09-09T01:08:19;101949.66;;;21.27;47.88
72370;BME280;60343;-32.030;115.880;2022-09-09T01:10:54;101949.78;;;21.46;47.73
72370;BME280;60343;-32.030;115.880;2022-09-09T01:13:26;101954.59;;;21.44;47.70
72370;BME280;60343;-32.030;115.880;2022-09-09T01:15:55;101950.81;;;21.51;48.38
72370;BME280;60343;-32.030;115.880;2022-09-09T01:18:27;101949.78;;;21.52;46.74
72370;BME280;60343;-32.030;115.880;2022-09-09T01:21:07;101953.34;;;21.53;47.52
72370;BME280;60343;-32.030;115.880;2022-09-09T01:23:48;101952.16;;;21.29;46.70
72370;BME280;60343;-32.030;115.880;2022-09-09T01:26:37;101953.25;;;21.15;47.77
72370;BME280;60343;-32.030;115.880;2022-09-09T01:29:08;101947.50;;;21.43;47.45
72370;BME280;60343;-32.030;115.880;2022-09-09T01:31:39;101939.94;;;21.45;48.24
72370;BME280;60343;-32.030;115.880;2022-09-09T01:34:12;101946.69;;;21.35;49.24
72370;BME280;60343;-32.030;115.880;2022-09-09T01:36:45;101943.06;;;21.48;48.51
72370;BME280;60343;-32.030;115.880;2022-09-09T01:39:15;101944.53;;;21.51;48.84
72370;BME280;60343;-32.030;115.880;2022-09-09T01:41:49;101942.34;;;21.72;47.82
72370;BME280;60343;-32.030;115.880;2022-09-09T01:44:17;101939.72;;;21.84;47.07
72370;BME280;60343;-32.030;115.880;2022-09-09T01:46:47;101932.56;;;21.96;46.54
72370;BME280;60343;-32.030;115.880;2022-09-09T01:49:17;101940.94;;;22.26;45.80
72370;BME280;60343;-32.030;115.880;2022-09-09T01:51:48;101940.94;;;22.51;46.00
72370;BME280;60343;-32.030;115.880;2022-09-09T01:54:17;101941.06;;;22.62;45.15
72370;BME280;60343;-32.030;115.880;2022-09-09T01:56:59;101940.97;;;22.94;45.78
72370;BME280;60343;-32.030;115.880;2022-09-09T01:59:47;101942.47;;;22.90;44.03
72370;BME280;60343;-32.030;115.880;2022-09-09T02:02:19;101934.53;;;23.06;42.97
72370;BME280;60343;-32.030;115.880;2022-09-09T02:04:51;101940.38;;;23.10;42.71
72370;BME280;60343;-32.030;115.880;2022-09-09T02:07:35;101929.59;;;23.33;42.58
72370;BME280;60343;-32.030;115.880;2022-09-09T02:10:11;101936.03;;;23.21;42.15
72370;BME280;60343;-32.030;115.880;2022-09-09T02:12:49;101934.59;;;23.36;43.39
72370;BME280;60343;-32.030;115.880;2022-09-09T02:15:22;101938.09;;;23.43;42.65
72370;BME280;60343;-32.030;115.880;2022-09-09T02:17:52;101942.94;;;23.60;42.10
72370;BME280;60343;-32.030;115.880;2022-09-09T02:20:21;101947.09;;;23.92;41.48
72370;BME280;60343;-32.030;115.880;2022-09-09T02:22:51;101937.22;;;24.21;41.60
72370;BME280;60343;-32.030;115.880;2022-09-09T02:25:24;101937.34;;;24.26;40.39
72370;BME280;60343;-32.030;115.880;2022-09-09T02:28:00;101934.97;;;24.29;39.82
72370;BME280;60343;-32.030;115.880;2022-09-09T02:30:31;101930.81;;;24.50;40.90
72370;BME280;60343;-32.030;115.880;2022-09-09T02:33:02;101927.50;;;24.71;39.84
72370;BME280;60343;-32.030;115.880;2022-09-09T02:35:33;101938.09;;;24.79;39.57
72370;BME280;60343;-32.030;115.880;2022-09-09T02:38:06;101933.00;;;24.95;39.40
72370;BME280;60343;-32.030;115.880;2022-09-09T02:40:35;101931.44;;;24.87;39.29
72370;BME280;60343;-32.030;115.880;2022-09-09T02:43:09;101925.81;;;24.82;39.87
72370;BME280;60343;-32.030;115.880;2022-09-09T02:45:44;101929.53;;;24.88;38.79
72370;BME280;60343;-32.030;115.880;2022-09-09T02:48:18;101919.88;;;24.97;39.88
72370;BME280;60343;-32.030;115.880;2022-09-09T02:51:06;101927.16;;;24.91;38.19
72370;BME280;60343;-32.030;115.880;2022-09-09T02:53:43;101923.28;;;25.27;38.95
72370;BME280;60343;-32.030;115.880;2022-09-09T02:56:17;101913.75;;;25.70;38.44
72370;BME280;60343;-32.030;115.880;2022-09-09T02:58:52;101911.75;;;25.82;37.96
72370;BME280;60343;-32.030;115.880;2022-09-09T03:01:23;101914.13;;;25.90;38.07
72370;BME280;60343;-32.030;115.880;2022-09-09T03:03:51;101902.69;;;25.81;37.16
72370;BME280;60343;-32.030;115.880;2022-09-09T03:06:19;101904.50;;;25.47;38.10
72370;BME280;60343;-32.030;115.880;2022-09-09T03:08:51;101897.22;;;25.13;38.79
72370;BME280;60343;-32.030;115.880;2022-09-09T03:11:19;101903.56;;;23.79;42.47
72370;BME280;60343;-32.030;115.880;2022-09-09T03:13:53;101902.81;;;22.87;44.22
72370;BME280;60343;-32.030;115.880;2022-09-09T03:16:21;101894.94;;;22.97;44.43
72370;BME280;60343;-32.030;115.880;2022-09-09T03:18:49;101890.63;;;23.56;42.85
72370;BME280;60343;-32.030;115.880;2022-09-09T03:21:17;101887.53;;;24.06;40.00
72370;BME280;60343;-32.030;115.880;2022-09-09T03:23:45;101878.81;;;24.50;39.42
72370;BME280;60343;-32.030;115.880;2022-09-09T03:26:14;101872.94;;;24.82;38.99
72370;BME280;60343;-32.030;115.880;2022-09-09T03:28:42;101875.88;;;25.15;39.35
72370;BME280;60343;-32.030;115.880;2022-09-09T03:31:18;101874.03;;;25.32;37.63
72370;BME280;60343;-32.030;115.880;2022-09-09T03:33:46;101872.16;;;25.21;38.13
72370;BME280;60343;-32.030;115.880;2022-09-09T03:36:14;101867.25;;;24.95;39.01
72370;BME280;60343;-32.030;115.880;2022-09-09T03:38:42;101861.91;;;24.88;39.66
72370;BME280;60343;-32.030;115.880;2022-09-09T03:41:10;101860.41;;;24.86;38.28
72370;BME280;60343;-32.030;115.880;2022-09-09T03:43:38;101861.66;;;24.90;38.93
72370;BME280;60343;-32.030;115.880;2022-09-09T03:46:06;101852.22;;;24.86;39.42
72370;BME280;60343;-32.030;115.880;2022-09-09T03:48:45;101854.00;;;25.03;39.28
72370;BME280;60343;-32.030;115.880;2022-09-09T03:51:14;101845.72;;;25.15;38.06
72370;BME280;60343;-32.030;115.880;2022-09-09T03:53:43;101844.41;;;25.17;38.34
72370;BME280;60343;-32.030;115.880;2022-09-09T03:56:11;101845.88;;;25.08;38.72
72370;BME280;60343;-32.030;115.880;2022-09-09T03:58:39;101835.66;;;25.32;38.54
72370;BME280;60343;-32.030;115.880;2022-09-09T04:01:09;101819.72;;;25.46;38.64
72370;BME280;60343;-32.030;115.880;2022-09-09T04:03:43;101821.81;;;25.39;37.40
72370;BME280;60343;-32.030;115.880;2022-09-09T04:06:12;101815.88;;;25.30;37.27
72370;BME280;60343;-32.030;115.880;2022-09-09T04:08:40;101812.25;;;25.41;36.76
72370;BME280;60343;-32.030;115.880;2022-09-09T04:11:09;101804.59;;;25.43;36.29
72370;BME280;60343;-32.030;115.880;2022-09-09T04:13:38;101802.06;;;25.25;36.82
72370;BME280;60343;-32.030;115.880;2022-09-09T04:16:06;101805.59;;;25.09;36.37
72370;BME280;60343;-32.030;115.880;2022-09-09T04:18:34;101798.56;;;25.13;37.57
72370;BME280;60343;-32.030;115.880;2022-09-09T04:21:11;101791.16;;;25.13;36.09
72370;BME280;60343;-32.030;115.880;2022-09-09T04:23:39;101782.31;;;24.95;35.40
72370;BME280;60343;-32.030;115.880;2022-09-09T04:26:08;101782.22;;;24.90;36.73
72370;BME280;60343;-32.030;115.880;2022-09-09T04:28:36;101778.56;;;25.01;37.45
72370;BME280;60343;-32.030;115.880;2022-09-09T04:31:09;101778.41;;;25.19;36.33
72370;BME280;60343;-32.030;115.880;2022-09-09T04:33:40;101781.28;;;25.12;34.49
72370;BME280;60343;-32.030;115.880;2022-09-09T04:36:14;101772.25;;;25.00;33.12
72370;BME280;60343;-32.030;115.880;2022-09-09T04:38:42;101765.19;;;24.88;33.96
72370;BME280;60343;-32.030;115.880;2022-09-09T04:41:10;101758.88;;;24.75;33.71
72370;BME280;60343;-32.030;115.880;2022-09-09T04:43:39;101753.38;;;24.75;33.35
72370;BME280;60343;-32.030;115.880;2022-09-09T04:46:07;101755.16;;;24.93;35.65
72370;BME280;60343;-32.030;115.880;2022-09-09T04:48:35;101751.34;;;25.39;35.07
72370;BME280;60343;-32.030;115.880;2022-09-09T04:51:05;101753.13;;;25.79;33.65
72370;BME280;60343;-32.030;115.880;2022-09-09T04:53:40;101749.16;;;25.70;32.46
72370;BME280;60343;-32.030;115.880;2022-09-09T04:56:10;101746.50;;;25.75;32.03
72370;BME280;60343;-32.030;115.880;2022-09-09T04:58:39;101747.25;;;25.70;33.71
72370;BME280;60343;-32.030;115.880;2022-09-09T05:01:08;101744.16;;;25.83;33.66
72370;BME280;60343;-32.030;115.880;2022-09-09T05:03:37;101748.78;;;25.49;34.30
72370;BME280;60343;-32.030;115.880;2022-09-09T05:06:07;101734.19;;;25.15;35.41
72370;BME280;60343;-32.030;115.880;2022-09-09T05:08:42;101731.84;;;24.79;39.69
72370;BME280;60343;-32.030;115.880;2022-09-09T05:11:28;101727.25;;;24.56;41.29
72370;BME280;60343;-32.030;115.880;2022-09-09T05:13:56;101726.97;;;24.06;40.63
72370;BME280;60343;-32.030;115.880;2022-09-09T05:16:25;101722.09;;;23.62;42.33
72370;BME280;60343;-32.030;115.880;2022-09-09T05:18:53;101720.06;;;23.16;43.36
72370;BME280;60343;-32.030;115.880;2022-09-09T05:21:23;101718.81;;;23.00;43.75
72370;BME280;60343;-32.030;115.880;2022-09-09T05:23:57;101714.94;;;22.59;44.50
72370;BME280;60343;-32.030;115.880;2022-09-09T05:26:25;101715.47;;;22.50;45.01
72370;BME280;60343;-32.030;115.880;2022-09-09T05:28:53;101713.06;;;22.42;45.43
72370;BME280;60343;-32.030;115.880;2022-09-09T05:31:21;101706.56;;;22.43;45.40
72370;BME280;60343;-32.030;115.880;2022-09-09T05:33:49;101699.69;;;22.70;44.70
72370;BME280;60343;-32.030;115.880;2022-09-09T05:36:19;101704.59;;;23.51;43.94
72370;BME280;60343;-32.030;115.880;2022-09-09T05:38:48;101695.31;;;24.33;42.07
72370;BME280;60343;-32.030;115.880;2022-09-09T05:41:22;101702.59;;;24.96;40.68
72370;BME280;60343;-32.030;115.880;2022-09-09T05:43:50;101698.25;;;25.45;38.81
72370;BME280;60343;-32.030;115.880;2022-09-09T05:46:22;101694.88;;;24.93;39.37
72370;BME280;60343;-32.030;115.880;2022-09-09T05:48:51;101703.72;;;25.12;39.84
72370;BME280;60343;-32.030;115.880;2022-09-09T05:51:20;101702.94;;;25.45;38.23
72370;BME280;60343;-32.030;115.880;2022-09-09T05:53:50;101700.19;;;25.61;37.04
72370;BME280;60343;-32.030;115.880;2022-09-09T05:56:25;101687.81;;;25.59;37.33
72370;BME280;60343;-32.030;115.880;2022-09-09T05:58:54;101685.44;;;25.51;37.05
72370;BME280;60343;-32.030;115.880;2022-09-09T06:01:27;101687.69;;;25.37;38.74
72370;BME280;60343;-32.030;115.880;2022-09-09T06:03:56;101684.38;;;25.35;36.92
72370;BME280;60343;-32.030;115.880;2022-09-09T06:06:25;101679.72;;;25.36;38.02
72370;BME280;60343;-32.030;115.880;2022-09-09T06:09:00;101684.56;;;25.62;36.61
72370;BME280;60343;-32.030;115.880;2022-09-09T06:11:36;101678.75;;;25.75;36.54
72370;BME280;60343;-32.030;115.880;2022-09-09T06:14:05;101679.63;;;26.19;36.44
72370;BME280;60343;-32.030;115.880;2022-09-09T06:16:33;101671.28;;;26.53;34.27
72370;BME280;60343;-32.030;115.880;2022-09-09T06:19:02;101677.06;;;26.56;35.10
72370;BME280;60343;-32.030;115.880;2022-09-09T06:21:31;101673.69;;;26.71;35.00
72370;BME280;60343;-32.030;115.880;2022-09-09T06:24:00;101676.84;;;27.11;34.69
72370;BME280;60343;-32.030;115.880;2022-09-09T06:26:35;101671.31;;;26.79;35.04
72370;BME280;60343;-32.030;115.880;2022-09-09T06:29:04;101662.59;;;26.61;35.12
72370;BME280;60343;-32.030;115.880;2022-09-09T06:31:34;101662.19;;;26.52;34.49
72370;BME280;60343;-32.030;115.880;2022-09-09T06:34:03;101654.94;;;26.19;35.25
72370;BME280;60343;-32.030;115.880;2022-09-09T06:36:35;101653.66;;;26.05;35.58
72370;BME280;60343;-32.030;115.880;2022-09-09T06:39:04;101657.69;;;25.81;35.79
72370;BME280;60343;-32.030;115.880;2022-09-09T06:41:39;101656.22;;;25.56;37.34
72370;BME280;60343;-32.030;115.880;2022-09-09T06:44:07;101656.50;;;25.55;36.46
72370;BME280;60343;-32.030;115.880;2022-09-09T06:49:40;101654.97;;;25.47;37.28
72370;BME280;60343;-32.030;115.880;2022-09-09T06:52:08;101653.00;;;25.59;37.01
72370;BME280;60343;-32.030;115.880;2022-09-09T06:54:36;101644.63;;;25.88;35.66
72370;BME280;60343;-32.030;115.880;2022-09-09T06:57:12;101649.97;;;25.78;36.38
72370;BME280;60343;-32.030;115.880;2022-09-09T06:59:40;101650.50;;;26.18;34.76
72370;BME280;60343;-32.030;115.880;2022-09-09T07:02:11;101648.56;;;26.35;35.43
72370;BME280;60343;-32.030;115.880;2022-09-09T07:04:39;101653.00;;;26.41;34.97
72370;BME280;60343;-32.030;115.880;2022-09-09T07:07:07;101656.53;;;26.85;35.15
72370;BME280;60343;-32.030;115.880;2022-09-09T07:09:35;101652.53;;;27.25;34.34
72370;BME280;60343;-32.030;115.880;2022-09-09T07:12:17;101655.22;;;27.20;34.66
72370;BME280;60343;-32.030;115.880;2022-09-09T07:14:45;101655.44;;;27.13;34.30
72370;BME280;60343;-32.030;115.880;2022-09-09T07:17:13;101660.41;;;27.16;34.32
72370;BME280;60343;-32.030;115.880;2022-09-09T07:19:43;101659.63;;;27.21;33.54
72370;BME280;60343;-32.030;115.880;2022-09-09T07:22:11;101661.19;;;27.44;32.66
72370;BME280;60343;-32.030;115.880;2022-09-09T07:24:39;101660.25;;;27.01;33.30
72370;BME280;60343;-32.030;115.880;2022-09-09T07:27:30;101658.97;;;27.09;33.31
72370;BME280;60343;-32.030;115.880;2022-09-09T07:30:00;101659.06;;;26.65;33.87
72370;BME280;60343;-32.030;115.880;2022-09-09T07:32:29;101655.00;;;26.73;33.66
72370;BME280;60343;-32.030;115.880;2022-09-09T07:35:02;101662.47;;;26.77;34.19
72370;BME280;60343;-32.030;115.880;2022-09-09T07:37:35;101661.69;;;26.82;34.92
72370;BME280;60343;-32.030;115.880;2022-09-09T07:40:04;101664.72;;;26.80;34.77
72370;BME280;60343;-32.030;115.880;2022-09-09T07:42:39;101661.66;;;26.50;35.08
72370;BME280;60343;-32.030;115.880;2022-09-09T07:45:07;101665.59;;;26.37;34.54
72370;BME280;60343;-32.030;115.880;2022-09-09T07:47:35;101668.31;;;26.16;36.67
72370;BME280;60343;-32.030;115.880;2022-09-09T07:50:04;101667.75;;;26.14;36.87
72370;BME280;60343;-32.030;115.880;2022-09-09T07:52:35;101659.94;;;26.05;37.09
72370;BME280;60343;-32.030;115.880;2022-09-09T07:55:04;101662.50;;;25.90;36.84
72370;BME280;60343;-32.030;115.880;2022-09-09T07:57:38;101663.72;;;25.99;37.16
72370;BME280;60343;-32.030;115.880;2022-09-09T08:00:07;101668.28;;;26.32;37.58
72370;BME280;60343;-32.030;115.880;2022-09-09T08:02:35;101661.78;;;26.38;37.18
72370;BME280;60343;-32.030;115.880;2022-09-09T08:05:04;101662.50;;;26.12;37.92
72370;BME280;60343;-32.030;115.880;2022-09-09T08:07:31;101661.78;;;25.78;38.92
72370;BME280;60343;-32.030;115.880;2022-09-09T08:10:02;101667.56;;;25.60;39.05
72370;BME280;60343;-32.030;115.880;2022-09-09T08:12:31;101671.19;;;25.49;39.50
72370;BME280;60343;-32.030;115.880;2022-09-09T08:15:05;101666.75;;;25.48;39.32
72370;BME280;60343;-32.030;115.880;2022-09-09T08:17:33;101670.63;;;25.63;39.00
72370;BME280;60343;-32.030;115.880;2022-09-09T08:20:02;101664.22;;;25.25;40.36
72370;BME280;60343;-32.030;115.880;2022-09-09T08:22:30;101673.75;;;25.22;40.33
72370;BME280;60343;-32.030;115.880;2022-09-09T08:24:58;101667.50;;;24.93;39.37
72370;BME280;60343;-32.030;115.880;2022-09-09T08:27:26;101665.63;;;24.54;40.21
72370;BME280;60343;-32.030;115.880;2022-09-09T08:29:54;101665.84;;;24.24;41.03
72370;BME280;60343;-32.030;115.880;2022-09-09T08:32:28;101664.09;;;23.71;41.04
72370;BME280;60343;-32.030;115.880;2022-09-09T08:34:56;101668.81;;;23.64;41.41
72370;BME280;60343;-32.030;115.880;2022-09-09T08:37:24;101671.53;;;23.41;42.61
72370;BME280;60343;-32.030;115.880;2022-09-09T08:39:52;101667.69;;;23.30;42.84
72370;BME280;60343;-32.030;115.880;2022-09-09T08:42:32;101668.63;;;23.24;42.39
72370;BME280;60343;-32.030;115.880;2022-09-09T08:45:14;101671.25;;;23.19;42.24
72370;BME280;60343;-32.030;115.880;2022-09-09T08:47:59;101672.59;;;22.87;42.97
72370;BME280;60343;-32.030;115.880;2022-09-09T08:50:29;101683.09;;;22.53;43.92
72370;BME280;60343;-32.030;115.880;2022-09-09T08:53:03;101680.75;;;22.39;43.82
72370;BME280;60343;-32.030;115.880;2022-09-09T08:55:38;101678.34;;;22.31;45.59
72370;BME280;60343;-32.030;115.880;2022-09-09T08:58:13;101679.88;;;22.08;47.15
72370;BME280;60343;-32.030;115.880;2022-09-09T09:03:48;101693.50;;;21.40;50.74
72370;BME280;60343;-32.030;115.880;2022-09-09T09:06:30;101701.66;;;21.09;51.58
72370;BME280;60343;-32.030;115.880;2022-09-09T09:09:06;101704.78;;;20.81;51.84
72370;BME280;60343;-32.030;115.880;2022-09-09T09:11:38;101700.28;;;20.62;52.79
72370;BME280;60343;-32.030;115.880;2022-09-09T09:14:11;101709.34;;;20.49;52.27
72370;BME280;60343;-32.030;115.880;2022-09-09T09:16:48;101710.22;;;20.30;51.88
72370;BME280;60343;-32.030;115.880;2022-09-09T09:19:24;101710.47;;;20.16;52.24
72370;BME280;60343;-32.030;115.880;2022-09-09T09:21:57;101718.88;;;20.01;52.88
72370;BME280;60343;-32.030;115.880;2022-09-09T09:24:33;101724.50;;;19.93;53.54
72370;BME280;60343;-32.030;115.880;2022-09-09T09:27:11;101725.59;;;19.79;53.13
72370;BME280;60343;-32.030;115.880;2022-09-09T09:29:41;101727.28;;;19.66;54.22
72370;BME280;60343;-32.030;115.880;2022-09-09T09:32:13;101732.50;;;19.61;54.22
72370;BME280;60343;-32.030;115.880;2022-09-09T09:34:50;101736.03;;;19.49;55.26
72370;BME280;60343;-32.030;115.880;2022-09-09T09:37:25;101743.72;;;19.32;55.83
72370;BME280;60343;-32.030;115.880;2022-09-09T09:39:54;101749.38;;;19.31;56.10
72370;BME280;60343;-32.030;115.880;2022-09-09T09:42:22;101753.50;;;19.26;56.28
72370;BME280;60343;-32.030;115.880;2022-09-09T09:44:50;101756.25;;;19.20;56.76
72370;BME280;60343;-32.030;115.880;2022-09-09T09:47:20;101756.38;;;18.99;57.22
72370;BME280;60343;-32.030;115.880;2022-09-09T09:50:00;101757.19;;;18.86;57.75
72370;BME280;60343;-32.030;115.880;2022-09-09T09:52:32;101762.44;;;18.94;57.79
72370;BME280;60343;-32.030;115.880;2022-09-09T09:55:02;101765.91;;;18.81;58.50
72370;BME280;60343;-32.030;115.880;2022-09-09T09:57:34;101769.69;;;18.80;58.70
72370;BME280;60343;-32.030;115.880;2022-09-09T10:00:06;101766.28;;;18.65;59.20
72370;BME280;60343;-32.030;115.880;2022-09-09T10:02:43;101774.59;;;18.57;59.89
72370;BME280;60343;-32.030;115.880;2022-09-09T10:05:21;101783.38;;;18.59;60.31
72370;BME280;60343;-32.030;115.880;2022-09-09T10:08:05;101772.91;;;18.56;60.73
72370;BME280;60343;-32.030;115.880;2022-09-09T10:10:51;101785.72;;;18.41;61.80
72370;BME280;60343;-32.030;115.880;2022-09-09T10:13:21;101784.44;;;18.37;62.23
72370;BME280;60343;-32.030;115.880;2022-09-09T10:16:04;101791.91;;;18.28;62.40
72370;BME280;60343;-32.030;115.880;2022-09-09T10:18:45;101790.41;;;18.19;62.86
72370;BME280;60343;-32.030;115.880;2022-09-09T10:21:31;101796.31;;;18.01;63.32
72370;BME280;60343;-32.030;115.880;2022-09-09T10:24:21;101801.88;;;17.93;63.96
72370;BME280;60343;-32.030;115.880;2022-09-09T10:26:54;101802.28;;;17.90;64.15
72370;BME280;60343;-32.030;115.880;2022-09-09T10:32:32;101806.28;;;17.94;63.56
72370;BME280;60343;-32.030;115.880;2022-09-09T10:35:09;101814.78;;;17.91;63.63
72370;BME280;60343;-32.030;115.880;2022-09-09T10:37:57;101814.59;;;17.93;63.29
72370;BME280;60343;-32.030;115.880;2022-09-09T10:40:34;101829.16;;;17.92;63.24
72370;BME280;60343;-32.030;115.880;2022-09-09T10:43:22;101832.84;;;17.84;63.80
72370;BME280;60343;-32.030;115.880;2022-09-09T10:46:01;101832.72;;;17.71;64.21
72370;BME280;60343;-32.030;115.880;2022-09-09T10:48:42;101837.25;;;17.64;64.03
72370;BME280;60343;-32.030;115.880;2022-09-09T10:51:22;101842.44;;;17.66;64.46
72370;BME280;60343;-32.030;115.880;2022-09-09T10:54:09;101845.78;;;17.46;64.53
72370;BME280;60343;-32.030;115.880;2022-09-09T10:56:41;101848.44;;;17.40;65.08
72370;BME280;60343;-32.030;115.880;2022-09-09T10:59:14;101852.34;;;17.37;65.25
72370;BME280;60343;-32.030;115.880;2022-09-09T11:01:49;101858.19;;;17.41;64.89
72370;BME280;60343;-32.030;115.880;2022-09-09T11:04:22;101863.75;;;17.33;64.92
72370;BME280;60343;-32.030;115.880;2022-09-09T11:06:54;101854.81;;;17.17;65.68
72370;BME280;60343;-32.030;115.880;2022-09-09T11:09:31;101863.13;;;17.16;65.22
72370;BME280;60343;-32.030;115.880;2022-09-09T11:12:02;101859.41;;;17.02;66.00
72370;BME280;60343;-32.030;115.880;2022-09-09T11:14:34;101870.09;;;16.89;66.43
72370;BME280;60343;-32.030;115.880;2022-09-09T11:17:10;101874.56;;;16.82;66.76
72370;BME280;60343;-32.030;115.880;2022-09-09T11:19:41;101874.94;;;16.79;66.79
72370;BME280;60343;-32.030;115.880;2022-09-09T11:22:16;101875.00;;;16.71;67.21
72370;BME280;60343;-32.030;115.880;2022-09-09T11:24:55;101870.34;;;16.65;67.38
72370;BME280;60343;-32.030;115.880;2022-09-09T11:27:27;101879.22;;;16.73;67.16
72370;BME280;60343;-32.030;115.880;2022-09-09T11:30:22;101892.25;;;16.70;67.54
72370;BME280;60343;-32.030;115.880;2022-09-09T11:33:23;101888.81;;;16.61;67.57
72370;BME280;60343;-32.030;115.880;2022-09-09T11:36:05;101889.72;;;16.54;68.10
72370;BME280;60343;-32.030;115.880;2022-09-09T11:38:43;101891.09;;;16.50;68.25
72370;BME280;60343;-32.030;115.880;2022-09-09T11:41:20;101896.88;;;16.47;68.75
72370;BME280;60343;-32.030;115.880;2022-09-09T11:43:50;101892.13;;;16.49;68.78
72370;BME280;60343;-32.030;115.880;2022-09-09T11:46:22;101898.44;;;16.41;68.79
72370;BME280;60343;-32.030;115.880;2022-09-09T11:49:00;101906.63;;;16.33;68.82
72370;BME280;60343;-32.030;115.880;2022-09-09T11:51:29;101908.94;;;16.21;69.09
72370;BME280;60343;-32.030;115.880;2022-09-09T11:53:59;101904.25;;;16.15;69.71
72370;BME280;60343;-32.030;115.880;2022-09-09T11:56:41;101909.06;;;16.05;70.10
72370;BME280;60343;-32.030;115.880;2022-09-09T11:59:21;101911.84;;;15.97;70.26
72370;BME280;60343;-32.030;115.880;2022-09-09T12:01:53;101911.47;;;16.00;70.66
72370;BME280;60343;-32.030;115.880;2022-09-09T12:04:37;101919.09;;;15.97;70.79
72370;BME280;60343;-32.030;115.880;2022-09-09T12:07:25;101912.25;;;15.86;70.74
72370;BME280;60343;-32.030;115.880;2022-09-09T12:09:57;101922.91;;;15.79;71.50
72370;BME280;60343;-32.030;115.880;2022-09-09T12:12:34;101927.69;;;15.77;71.46
72370;BME280;60343;-32.030;115.880;2022-09-09T12:15:25;101922.03;;;15.87;72.15
72370;BME280;60343;-32.030;115.880;2022-09-09T12:17:54;101923.91;;;15.86;71.77
72370;BME280;60343;-32.030;115.880;2022-09-09T12:20:26;101932.00;;;15.86;71.54
72370;BME280;60343;-32.030;115.880;2022-09-09T12:23:27;101938.94;;;15.81;71.60
72370;BME280;60343;-32.030;115.880;2022-09-09T12:26:21;101945.25;;;15.73;72.46
72370;BME280;60343;-32.030;115.880;2022-09-09T12:29:06;101937.03;;;15.67;72.25
72370;BME280;60343;-32.030;115.880;2022-09-09T12:31:51;101936.94;;;15.52;72.39
72370;BME280;60343;-32.030;115.880;2022-09-09T12:34:30;101948.25;;;15.39;72.97
72370;BME280;60343;-32.030;115.880;2022-09-09T12:37:04;101950.31;;;15.37;73.57
72370;BME280;60343;-32.030;115.880;2022-09-09T12:39:35;101948.66;;;15.28;73.66
72370;BME280;60343;-32.030;115.880;2022-09-09T12:42:14;101959.78;;;15.25;74.33
72370;BME280;60343;-32.030;115.880;2022-09-09T12:44:55;101962.00;;;15.22;74.48
72370;BME280;60343;-32.030;115.880;2022-09-09T12:47:27;101960.63;;;15.26;74.52
72370;BME280;60343;-32.030;115.880;2022-09-09T12:49:58;101960.69;;;15.18;74.36
72370;BME280;60343;-32.030;115.880;2022-09-09T12:52:30;101964.22;;;15.10;74.89
72370;BME280;60343;-32.030;115.880;2022-09-09T12:55:00;101976.72;;;15.11;75.43
72370;BME280;60343;-32.030;115.880;2022-09-09T12:57:35;101975.34;;;15.15;75.29
72370;BME280;60343;-32.030;115.880;2022-09-09T13:00:20;101976.19;;;15.16;75.33